createdAt,value
2018-01-02T00:00:58.141Z,4.5
2018-01-02T00:02:08.076Z,4.48
2018-01-02T00:03:18.012Z,4.49
2018-01-02T00:04:27.947Z,4.53
2018-01-02T00:05:37.892Z,4.48
2018-01-02T00:06:47.826Z,4.53
2018-01-02T00:07:57.803Z,4.49
2018-01-02T00:09:07.227Z,4.52
2018-01-02T00:10:17.106Z,4.53
2018-01-02T00:11:27.072Z,4.53
2018-01-02T00:12:37.028Z,4.52
2018-01-02T00:13:46.976Z,4.53
2018-01-02T00:14:56.943Z,4.49
2018-01-02T00:16:06.899Z,4.52
2018-01-02T00:17:16.848Z,4.49
2018-01-02T00:18:26.801Z,4.5
2018-01-02T00:19:36.758Z,4.49
2018-01-02T00:20:46.753Z,4.52
2018-01-02T00:21:56.695Z,4.52
2018-01-02T00:23:06.648Z,4.53
2018-01-02T00:24:16.094Z,4.49
2018-01-02T00:25:26.048Z,4.52
2018-01-02T00:26:35.738Z,4.52
2018-01-02T00:27:45.699Z,4.5
2018-01-02T00:28:55.638Z,4.49
2018-01-02T00:30:05.599Z,4.57
2018-01-02T00:31:15.281Z,4.52
2018-01-02T00:32:24.973Z,4.52
2018-01-02T00:33:34.928Z,4.48
2018-01-02T00:34:44.634Z,4.5
2018-01-02T00:35:54.330Z,4.53
2018-01-02T00:37:04.011Z,4.52
2018-01-02T00:38:13.976Z,4.49
2018-01-02T00:39:23.162Z,4.48
2018-01-02T00:40:32.866Z,4.46
2018-01-02T00:41:42.821Z,4.48
2018-01-02T00:42:52.751Z,4.52
2018-01-02T00:44:02.454Z,4.46
2018-01-02T00:45:12.456Z,4.5
2018-01-02T00:46:22.413Z,4.5
2018-01-02T00:47:32.364Z,4.56
2018-01-02T00:48:42.063Z,4.53
2018-01-02T00:49:52.001Z,4.57
2018-01-02T00:51:01.944Z,4.57
2018-01-02T00:52:11.906Z,4.49
2018-01-02T00:53:21.896Z,4.57
2018-01-02T00:54:31.579Z,4.53
2018-01-02T00:55:41.539Z,4.56
2018-01-02T00:56:51.474Z,4.52
2018-01-02T00:58:01.414Z,4.56
2018-01-02T00:59:11.385Z,4.58
2018-01-02T01:00:21.324Z,4.56
2018-01-02T01:01:31.013Z,4.49
2018-01-02T01:02:40.959Z,4.53
2018-01-02T01:03:50.903Z,4.52
2018-01-02T01:05:00.078Z,4.49
2018-01-02T01:06:09.525Z,4.48
2018-01-02T01:07:19.461Z,4.5
2018-01-02T01:08:29.399Z,4.42
2018-01-02T01:09:39.089Z,4.52
2018-01-02T01:10:49.032Z,4.42
2018-01-02T01:11:58.738Z,4.39
2018-01-02T01:13:08.420Z,4.38
2018-01-02T01:14:18.120Z,4.42
2018-01-02T01:15:28.085Z,4.46
2018-01-02T01:16:38.030Z,4.42
2018-01-02T01:17:48.001Z,4.4
2018-01-02T01:18:57.687Z,4.42
2018-01-02T01:20:07.618Z,4.36
2018-01-02T01:21:17.324Z,4.31
2018-01-02T01:22:27.276Z,4.38
2018-01-02T01:23:37.218Z,4.43
2018-01-02T01:24:46.913Z,4.32
2018-01-02T01:25:56.879Z,4.4
2018-01-02T01:27:06.832Z,4.34
2018-01-02T01:28:16.271Z,4.31
2018-01-02T01:29:25.717Z,4.25
2018-01-02T01:30:35.678Z,4.22
2018-01-02T01:31:45.378Z,4.28
2018-01-02T01:32:55.332Z,4.2
2018-01-02T01:34:05.032Z,4.16
2018-01-02T01:35:14.977Z,4.13
2018-01-02T01:36:24.667Z,4.16
2018-01-02T01:37:34.658Z,4.18
2018-01-02T01:38:44.355Z,4.13
2018-01-02T01:39:54.044Z,4.16
2018-01-02T01:41:03.985Z,4.14
2018-01-02T01:42:13.937Z,4.16
2018-01-02T01:43:23.865Z,4.16
2018-01-02T01:44:33.314Z,4.13
2018-01-02T01:45:43.401Z,4.13
2018-01-02T01:46:53.345Z,4.12
2018-01-02T01:48:03.043Z,4.12
2018-01-02T01:49:12.731Z,4.12
2018-01-02T01:50:22.667Z,4.13
2018-01-02T01:51:32.602Z,4.16
2018-01-02T01:52:42.559Z,4.14
2018-01-02T01:53:52.507Z,4.21
2018-01-02T01:55:02.443Z,4.21
2018-01-02T01:56:12.389Z,4.18
2018-01-02T01:57:21.837Z,4.2
2018-01-02T01:58:31.677Z,4.13
2018-01-02T01:59:41.364Z,4.03
2018-01-02T02:00:51.310Z,4.04
2018-01-02T02:02:01.260Z,4.03
2018-01-02T02:03:11.210Z,3.95
2018-01-02T02:04:21.168Z,3.96
2018-01-02T02:05:31.117Z,3.96
2018-01-02T02:06:41.057Z,3.89
2018-01-02T02:07:50.748Z,3.88
2018-01-02T02:09:00.431Z,3.94
2018-01-02T02:10:10.113Z,3.96
2018-01-02T02:11:19.808Z,3.95
2018-01-02T02:12:29.757Z,3.96
2018-01-02T02:13:39.697Z,3.99
2018-01-02T02:14:49.658Z,3.88
2018-01-02T02:15:59.609Z,4
2018-01-02T02:17:09.540Z,3.88
2018-01-02T02:18:19.468Z,3.91
2018-01-02T02:19:29.153Z,3.95
2018-01-02T02:20:39.102Z,3.94
2018-01-02T02:21:48.533Z,3.94
2018-01-02T02:22:58.482Z,3.92
2018-01-02T02:24:08.434Z,3.84
2018-01-02T02:25:18.375Z,3.81
2018-01-02T02:26:28.308Z,3.84
2018-01-02T02:27:38.244Z,3.78
2018-01-02T02:28:48.186Z,3.78
2018-01-02T02:29:58.123Z,3.86
2018-01-02T02:31:07.814Z,3.92
2018-01-02T02:32:17.757Z,3.82
2018-01-02T02:33:27.715Z,3.94
2018-01-02T02:34:37.667Z,3.82
2018-01-02T02:35:47.613Z,3.78
2018-01-02T02:36:57.316Z,3.85
2018-01-02T02:38:07.301Z,3.86
2018-01-02T02:39:16.986Z,3.88
2018-01-02T02:40:26.679Z,3.94
2018-01-02T02:41:36.622Z,3.86
2018-01-02T02:42:46.055Z,3.86
2018-01-02T02:43:55.745Z,3.91
2018-01-02T02:45:05.431Z,3.86
2018-01-02T02:46:15.117Z,3.86
2018-01-02T02:47:24.805Z,3.84
2018-01-02T02:48:34.584Z,3.91
2018-01-02T02:49:44.538Z,3.88
2018-01-02T02:50:54.481Z,3.85
2018-01-02T02:52:03.913Z,3.86
2018-01-02T02:53:13.867Z,3.86
2018-01-02T02:54:23.575Z,3.85
2018-01-02T02:55:33.517Z,3.91
2018-01-02T02:56:43.469Z,3.85
2018-01-02T02:57:53.403Z,3.92
2018-01-02T02:59:03.093Z,3.82
2018-01-02T03:00:13.042Z,3.88
2018-01-02T03:01:22.984Z,3.89
2018-01-02T03:02:32.928Z,3.74
2018-01-02T03:03:42.875Z,3.77
2018-01-02T03:04:52.824Z,3.88
2018-01-02T03:06:02.771Z,3.84
2018-01-02T03:07:12.459Z,3.73
2018-01-02T03:08:22.403Z,3.78
2018-01-02T03:09:32.350Z,3.74
2018-01-02T03:10:42.285Z,3.82
2018-01-02T03:11:52.226Z,3.82
2018-01-02T03:13:02.163Z,3.82
2018-01-02T03:14:12.113Z,3.82
2018-01-02T03:15:21.796Z,3.82
2018-01-02T03:16:31.734Z,3.74
2018-01-02T03:17:41.414Z,3.73
2018-01-02T03:18:51.353Z,3.68
2018-01-02T03:20:01.296Z,3.67
2018-01-02T03:21:11.259Z,3.68
2018-01-02T03:22:21.212Z,3.71
2018-01-02T03:23:31.154Z,3.7
2018-01-02T03:24:40.587Z,3.7
2018-01-02T03:25:50.527Z,3.82
2018-01-02T03:27:00.481Z,3.85
2018-01-02T03:28:10.421Z,3.82
2018-01-02T03:29:20.108Z,3.77
2018-01-02T03:30:30.093Z,3.86
2018-01-02T03:31:40.045Z,3.84
2018-01-02T03:32:49.986Z,3.85
2018-01-02T03:33:59.931Z,3.86
2018-01-02T03:35:09.363Z,3.74
2018-01-02T03:36:19.307Z,3.77
2018-01-02T03:37:29.253Z,3.68
2018-01-02T03:38:39.199Z,3.7
2018-01-02T03:39:49.140Z,3.68
2018-01-02T03:40:59.103Z,3.68
2018-01-02T03:42:09.050Z,3.77
2018-01-02T03:43:18.979Z,3.74
2018-01-02T03:44:28.914Z,3.71
2018-01-02T03:45:38.860Z,3.82
2018-01-02T03:46:48.540Z,3.84
2018-01-02T03:47:58.230Z,3.77
2018-01-02T03:49:08.223Z,3.85
2018-01-02T03:50:17.915Z,3.85
2018-01-02T03:51:27.853Z,3.74
2018-01-02T03:52:37.542Z,3.88
2018-01-02T03:53:47.226Z,3.91
2018-01-02T03:54:57.175Z,3.85
2018-01-02T03:56:06.856Z,3.84
2018-01-02T03:57:16.795Z,3.95
2018-01-02T03:58:26.495Z,3.91
2018-01-02T03:59:36.447Z,3.95
2018-01-02T04:00:46.138Z,3.95
2018-01-02T04:01:56.078Z,4
2018-01-02T04:03:06.017Z,3.95
2018-01-02T04:04:15.961Z,4.02
2018-01-02T04:05:25.912Z,3.96
2018-01-02T04:06:35.864Z,4.07
2018-01-02T04:07:45.813Z,4.07
2018-01-02T04:08:55.498Z,3.96
2018-01-02T04:10:05.424Z,4.09
2018-01-02T04:11:14.851Z,4.09
2018-01-02T04:12:24.534Z,4.09
2018-01-02T04:13:34.215Z,4.12
2018-01-02T04:14:43.898Z,4.12
2018-01-02T04:15:53.849Z,4.13
2018-01-02T04:17:03.799Z,4.16
2018-01-02T04:18:13.751Z,4.13
2018-01-02T04:19:23.184Z,4.12
2018-01-02T04:20:33.158Z,4.14
2018-01-02T04:21:43.120Z,4.12
2018-01-02T04:22:52.854Z,4.12
2018-01-02T04:24:02.795Z,4.16
2018-01-02T04:25:12.470Z,4.14
2018-01-02T04:26:22.409Z,4.14
2018-01-02T04:27:32.366Z,4.21
2018-01-02T04:28:42.054Z,4.16
2018-01-02T04:29:51.734Z,4.28
2018-01-02T04:31:01.684Z,4.27
2018-01-02T04:32:11.641Z,4.25
2018-01-02T04:33:21.574Z,4.28
2018-01-02T04:34:31.508Z,4.36
2018-01-02T04:35:40.692Z,4.31
2018-01-02T04:36:50.633Z,4.32
2018-01-02T04:38:00.590Z,4.3
2018-01-02T04:39:10.274Z,4.3
2018-01-02T04:40:19.960Z,4.38
2018-01-02T04:41:29.392Z,4.38
2018-01-02T04:42:39.339Z,4.28
2018-01-02T04:43:49.278Z,4.25
2018-01-02T04:44:58.969Z,4.28
2018-01-02T04:46:08.908Z,4.28
2018-01-02T04:47:18.336Z,4.39
2018-01-02T04:48:28.283Z,4.39
2018-01-02T04:49:37.975Z,4.36
2018-01-02T04:50:47.908Z,4.39
2018-01-02T04:51:57.336Z,4.39
2018-01-02T04:53:07.274Z,4.31
2018-01-02T04:54:17.001Z,4.32
2018-01-02T04:55:26.947Z,4.27
2018-01-02T04:56:36.397Z,4.27
2018-01-02T04:57:46.334Z,4.32
2018-01-02T04:58:55.773Z,4.27
2018-01-02T05:00:05.210Z,4.34
2018-01-02T05:01:14.903Z,4.31
2018-01-02T05:02:24.845Z,4.27
2018-01-02T05:03:34.779Z,4.22
2018-01-02T05:04:44.716Z,4.25
2018-01-02T05:05:54.667Z,4.27
2018-01-02T05:07:04.615Z,4.25
2018-01-02T05:08:14.551Z,4.27
2018-01-02T05:09:24.487Z,4.3
2018-01-02T05:10:34.433Z,4.31
2018-01-02T05:11:44.367Z,4.34
2018-01-02T05:12:54.302Z,4.27
2018-01-02T05:14:03.998Z,4.39
2018-01-02T05:15:13.946Z,4.36
2018-01-02T05:16:23.643Z,4.28
2018-01-02T05:17:33.330Z,4.31
2018-01-02T05:18:43.270Z,4.38
2018-01-02T05:19:52.713Z,4.31
2018-01-02T05:21:02.667Z,4.4
2018-01-02T05:22:12.618Z,4.38
2018-01-02T05:23:22.563Z,4.32
2018-01-02T05:24:32.504Z,4.34
2018-01-02T05:25:42.454Z,4.36
2018-01-02T05:26:51.890Z,4.45
2018-01-02T05:28:01.833Z,4.36
2018-01-02T05:29:11.527Z,4.32
2018-01-02T05:30:21.224Z,4.32
2018-01-02T05:31:30.916Z,4.43
2018-01-02T05:32:40.861Z,4.36
2018-01-02T05:33:50.803Z,4.36
2018-01-02T05:35:00.229Z,4.38
2018-01-02T05:36:09.403Z,4.32
2018-01-02T05:37:18.825Z,4.36
2018-01-02T05:38:28.503Z,4.36
2018-01-02T05:39:38.440Z,4.34
2018-01-02T05:40:48.127Z,4.34
2018-01-02T05:41:58.139Z,4.36
2018-01-02T05:43:08.132Z,4.34
2018-01-02T05:44:18.073Z,4.4
2018-01-02T05:45:27.759Z,4.45
2018-01-02T05:46:37.196Z,4.45
2018-01-02T05:47:47.138Z,4.56
2018-01-02T05:48:56.825Z,4.52
2018-01-02T05:50:06.561Z,4.42
2018-01-02T05:51:16.510Z,4.49
2018-01-02T05:52:26.198Z,4.34
2018-01-02T05:53:36.137Z,4.38
2018-01-02T05:54:46.073Z,4.4
2018-01-02T05:55:56.009Z,4.42
2018-01-02T05:57:05.458Z,4.39
2018-01-02T05:58:14.893Z,4.39
2018-01-02T05:59:24.579Z,4.36
2018-01-02T06:00:34.523Z,4.36
2018-01-02T06:01:44.461Z,4.36
2018-01-02T06:02:54.404Z,4.32
2018-01-02T06:04:04.359Z,4.36
2018-01-02T06:05:14.318Z,4.36
2018-01-02T06:06:24.279Z,4.48
2018-01-02T06:07:34.225Z,4.36
2018-01-02T06:08:44.177Z,4.32
2018-01-02T06:09:54.122Z,4.36
2018-01-02T06:11:03.805Z,4.43
2018-01-02T06:12:13.489Z,4.43
2018-01-02T06:13:23.431Z,4.39
2018-01-02T06:14:33.112Z,4.45
2018-01-02T06:15:42.821Z,4.39
2018-01-02T06:16:52.766Z,4.42
2018-01-02T06:18:02.711Z,4.32
2018-01-02T06:19:12.649Z,4.43
2018-01-02T06:20:22.598Z,4.32
2018-01-02T06:21:32.285Z,4.32
2018-01-02T06:22:42.227Z,4.34
2018-01-02T06:23:51.944Z,4.31
2018-01-02T06:25:01.631Z,4.3
2018-01-02T06:26:11.330Z,4.46
2018-01-02T06:27:21.027Z,4.32
2018-01-02T06:28:30.471Z,4.39
2018-01-02T06:29:40.160Z,4.36
2018-01-02T06:30:50.137Z,4.39
2018-01-02T06:32:00.091Z,4.46
2018-01-02T06:33:10.058Z,4.46
2018-01-02T06:34:20.033Z,4.32
2018-01-02T06:35:29.970Z,4.36
2018-01-02T06:36:39.399Z,4.34
2018-01-02T06:37:49.354Z,4.32
2018-01-02T06:38:59.293Z,4.38
2018-01-02T06:40:09.238Z,4.25
2018-01-02T06:41:19.182Z,4.27
2018-01-02T06:42:29.126Z,4.22
2018-01-02T06:43:38.904Z,4.22
2018-01-02T06:44:48.843Z,4.25
2018-01-02T06:45:58.781Z,4.22
2018-01-02T06:47:08.741Z,4.28
2018-01-02T06:48:18.175Z,4.28
2018-01-02T06:49:27.862Z,4.24
2018-01-02T06:50:37.808Z,4.24
2018-01-02T06:51:47.763Z,4.24
2018-01-02T06:52:57.718Z,4.22
2018-01-02T06:54:07.408Z,4.22
2018-01-02T06:55:17.348Z,4.2
2018-01-02T06:56:27.294Z,4.24
2018-01-02T06:57:37.493Z,4.28
2018-01-02T06:58:47.440Z,4.34
2018-01-02T06:59:57.390Z,4.38
2018-01-02T07:01:07.084Z,4.45
2018-01-02T07:02:16.777Z,4.49
2018-01-02T07:03:26.714Z,4.4
2018-01-02T07:04:36.417Z,4.39
2018-01-02T07:05:46.104Z,4.4
2018-01-02T07:06:56.086Z,4.46
2018-01-02T07:08:05.792Z,4.31
2018-01-02T07:09:15.729Z,4.36
2018-01-02T07:10:25.679Z,4.25
2018-01-02T07:11:35.632Z,4.25
2018-01-02T07:12:45.325Z,4.2
2018-01-02T07:13:55.277Z,4.2
2018-01-02T07:15:05.250Z,4.18
2018-01-02T07:16:15.226Z,4.03
2018-01-02T07:17:25.173Z,4.03
2018-01-02T07:18:34.862Z,3.99
2018-01-02T07:19:44.807Z,3.94
2018-01-02T07:20:54.496Z,3.95
2018-01-02T07:22:04.450Z,3.96
2018-01-02T07:23:14.395Z,3.84
2018-01-02T07:24:24.354Z,3.88
2018-01-02T07:25:34.044Z,3.88
2018-01-02T07:26:43.744Z,3.85
2018-01-02T07:27:53.699Z,3.88
2018-01-02T07:29:03.668Z,3.76
2018-01-02T07:30:13.623Z,3.94
2018-01-02T07:31:23.573Z,3.85
2018-01-02T07:32:33.534Z,3.85
2018-01-02T07:33:43.221Z,3.85
2018-01-02T07:34:52.907Z,3.76
2018-01-02T07:36:02.856Z,3.82
2018-01-02T07:37:12.805Z,3.84
2018-01-02T07:38:22.238Z,3.82
2018-01-02T07:39:32.174Z,3.81
2018-01-02T07:40:42.140Z,3.81
2018-01-02T07:41:52.090Z,3.76
2018-01-02T07:43:01.776Z,3.73
2018-01-02T07:44:11.721Z,3.85
2018-01-02T07:45:21.660Z,3.82
2018-01-02T07:46:31.605Z,3.76
2018-01-02T07:47:41.549Z,3.78
2018-01-02T07:48:51.234Z,3.85
2018-01-02T07:50:00.914Z,3.74
2018-01-02T07:51:10.867Z,3.85
2018-01-02T07:52:20.810Z,3.81
2018-01-02T07:53:30.748Z,3.81
2018-01-02T07:54:40.184Z,3.82
2018-01-02T07:55:50.134Z,3.84
2018-01-02T07:57:00.089Z,3.82
2018-01-02T07:58:09.779Z,3.78
2018-01-02T07:59:19.782Z,3.82
2018-01-02T08:00:29.727Z,3.82
2018-01-02T08:01:39.682Z,3.81
2018-01-02T08:02:49.623Z,3.92
2018-01-02T08:03:59.565Z,3.76
2018-01-02T08:05:09.513Z,3.89
2018-01-02T08:06:18.993Z,3.82
2018-01-02T08:07:28.680Z,3.77
2018-01-02T08:08:38.623Z,3.78
2018-01-02T08:09:48.583Z,3.89
2018-01-02T08:10:58.530Z,3.92
2018-01-02T08:12:08.222Z,3.88
2018-01-02T08:13:18.153Z,3.85
2018-01-02T08:14:28.106Z,3.84
2018-01-02T08:15:37.809Z,3.84
2018-01-02T08:16:47.750Z,3.88
2018-01-02T08:17:57.442Z,3.81
2018-01-02T08:19:07.383Z,3.94
2018-01-02T08:20:17.089Z,3.86
2018-01-02T08:21:27.027Z,3.88
2018-01-02T08:22:36.723Z,3.89
2018-01-02T08:23:46.667Z,3.95
2018-01-02T08:24:56.609Z,3.89
2018-01-02T08:26:06.302Z,3.84
2018-01-02T08:27:15.987Z,3.99
2018-01-02T08:28:25.935Z,3.99
2018-01-02T08:29:35.161Z,3.89
2018-01-02T08:30:44.852Z,3.92
2018-01-02T08:31:54.800Z,4.02
2018-01-02T08:33:04.488Z,4.02
2018-01-02T08:34:14.173Z,4
2018-01-02T08:35:24.123Z,4.03
2018-01-02T08:36:33.566Z,4
2018-01-02T08:37:43.516Z,4.04
2018-01-02T08:38:53.443Z,4.14
2018-01-02T08:40:03.384Z,4.1
2018-01-02T08:41:13.340Z,4.12
2018-01-02T08:42:23.283Z,4.14
2018-01-02T08:43:32.728Z,4.04
2018-01-02T08:44:42.682Z,4.04
2018-01-02T08:45:52.642Z,4.04
2018-01-02T08:47:02.582Z,4.1
2018-01-02T08:48:12.533Z,4.16
2018-01-02T08:49:22.484Z,4.09
2018-01-02T08:50:32.426Z,4.12
2018-01-02T08:51:42.360Z,4.06
2018-01-02T08:52:52.304Z,4.12
2018-01-02T08:54:02.045Z,4.16
2018-01-02T08:55:11.742Z,4.14
2018-01-02T08:56:21.730Z,4.09
2018-01-02T08:57:31.671Z,4.13
2018-01-02T08:58:41.629Z,4.14
2018-01-02T08:59:51.574Z,4.13
2018-01-02T09:01:01.539Z,4.16
2018-01-02T09:02:10.989Z,4.14
2018-01-02T09:03:21.191Z,4.09
2018-01-02T09:04:31.155Z,4.14
2018-01-02T09:05:41.327Z,4.16
2018-01-02T09:06:51.265Z,4.21
2018-01-02T09:08:01.221Z,4.2
2018-01-02T09:09:11.179Z,4.2
2018-01-02T09:10:20.626Z,4.16
2018-01-02T09:11:30.058Z,4.22
2018-01-02T09:12:39.755Z,4.28
2018-01-02T09:13:49.456Z,4.22
2018-01-02T09:14:59.156Z,4.24
2018-01-02T09:16:09.106Z,4.27
2018-01-02T09:17:18.795Z,4.22
2018-01-02T09:18:28.746Z,4.22
2018-01-02T09:19:38.426Z,4.27
2018-01-02T09:20:48.361Z,4.31
2018-01-02T09:21:58.307Z,4.31
2018-01-02T09:23:08.015Z,4.3
2018-01-02T09:24:17.446Z,4.32
2018-01-02T09:25:27.136Z,4.46
2018-01-02T09:26:37.091Z,4.38
2018-01-02T09:27:47.036Z,4.32
2018-01-02T09:28:56.724Z,4.3
2018-01-02T09:30:06.409Z,4.36
2018-01-02T09:31:16.152Z,4.36
2018-01-02T09:32:26.115Z,4.39
2018-01-02T09:33:36.058Z,4.39
2018-01-02T09:34:46.005Z,4.31
2018-01-02T09:35:55.951Z,4.31
2018-01-02T09:37:05.900Z,4.48
2018-01-02T09:38:15.988Z,4.34
2018-01-02T09:39:25.983Z,4.4
2018-01-02T09:40:35.936Z,4.42
2018-01-02T09:41:45.937Z,4.45
2018-01-02T09:42:55.872Z,4.38
2018-01-02T09:44:05.573Z,4.36
2018-01-02T09:45:15.526Z,4.38
2018-01-02T09:46:25.470Z,4.39
2018-01-02T09:47:34.898Z,4.43
2018-01-02T09:48:44.837Z,4.4
2018-01-02T09:49:54.868Z,4.39
2018-01-02T09:51:04.548Z,4.39
2018-01-02T09:52:14.493Z,4.42
2018-01-02T09:53:24.191Z,4.38
2018-01-02T09:54:34.140Z,4.46
2018-01-02T09:55:44.091Z,4.45
2018-01-02T09:56:54.050Z,4.43
2018-01-02T09:58:03.992Z,4.4
2018-01-02T09:59:13.939Z,4.4
2018-01-02T10:00:23.871Z,4.56
2018-01-02T10:01:33.548Z,4.49
2018-01-02T10:02:43.530Z,4.5
2018-01-02T10:03:53.488Z,4.52
2018-01-02T10:05:03.440Z,4.5
2018-01-02T10:06:13.135Z,4.46
2018-01-02T10:07:23.084Z,4.5
2018-01-02T10:08:32.781Z,4.46
2018-01-02T10:09:42.460Z,4.4
2018-01-02T10:10:52.412Z,4.46
2018-01-02T10:12:02.109Z,4.58
2018-01-02T10:13:12.064Z,4.52
2018-01-02T10:14:21.754Z,4.49
2018-01-02T10:15:31.442Z,4.48
2018-01-02T10:16:41.383Z,4.5
2018-01-02T10:17:51.073Z,4.5
2018-01-02T10:19:01.015Z,4.52
2018-01-02T10:20:10.759Z,4.5
2018-01-02T10:21:20.702Z,4.53
2018-01-02T10:22:30.664Z,4.49
2018-01-02T10:23:40.611Z,4.58
2018-01-02T10:24:50.571Z,4.57
2018-01-02T10:26:00.513Z,4.53
2018-01-02T10:27:10.457Z,4.58
2018-01-02T10:28:19.901Z,4.52
2018-01-02T10:29:29.860Z,4.53
2018-01-02T10:30:39.811Z,4.61
2018-01-02T10:31:49.505Z,4.64
2018-01-02T10:32:59.508Z,4.64
2018-01-02T10:34:09.482Z,4.56
2018-01-02T10:35:19.444Z,4.6
2018-01-02T10:36:29.452Z,4.71
2018-01-02T10:37:39.394Z,4.7
2018-01-02T10:38:49.344Z,4.63
2018-01-02T10:39:59.319Z,4.67
2018-01-02T10:41:09.286Z,4.66
2018-01-02T10:42:19.245Z,4.67
2018-01-02T10:43:28.938Z,4.68
2018-01-02T10:44:38.884Z,4.66
2018-01-02T10:45:48.841Z,4.84
2018-01-02T10:46:58.847Z,4.84
2018-01-02T10:48:08.810Z,4.7
2018-01-02T10:49:18.778Z,4.76
2018-01-02T10:50:28.960Z,4.84
2018-01-02T10:51:38.904Z,4.84
2018-01-02T10:52:48.852Z,4.87
2018-01-02T10:53:58.806Z,4.98
2018-01-02T10:55:08.772Z,4.95
2018-01-02T10:56:18.472Z,5.01
2018-01-02T10:57:28.428Z,4.92
2018-01-02T10:58:38.121Z,4.95
2018-01-02T10:59:48.083Z,5.01
2018-01-02T11:00:58.027Z,5
2018-01-02T11:02:07.973Z,4.95
2018-01-02T11:03:17.922Z,4.94
2018-01-02T11:04:27.616Z,5.01
2018-01-02T11:05:37.568Z,4.98
2018-01-02T11:06:47.507Z,4.87
2018-01-02T11:07:57.199Z,4.94
2018-01-02T11:09:07.164Z,4.94
2018-01-02T11:10:16.853Z,4.89
2018-01-02T11:11:26.793Z,4.9
2018-01-02T11:12:36.763Z,4.94
2018-01-02T11:13:46.709Z,4.94
2018-01-02T11:14:56.651Z,4.86
2018-01-02T11:16:06.614Z,4.89
2018-01-02T11:17:16.335Z,4.95
2018-01-02T11:18:26.034Z,4.98
2018-01-02T11:19:35.728Z,4.87
2018-01-02T11:20:45.673Z,4.97
2018-01-02T11:21:55.371Z,4.89
2018-01-02T11:23:05.323Z,4.97
2018-01-02T11:24:15.275Z,4.97
2018-01-02T11:25:24.966Z,5.04
2018-01-02T11:26:34.397Z,5
2018-01-02T11:27:44.342Z,4.97
2018-01-02T11:28:54.035Z,4.98
2018-01-02T11:30:03.976Z,5.08
2018-01-02T11:31:13.666Z,5.04
2018-01-02T11:32:23.618Z,5.08
2018-01-02T11:33:33.569Z,5.04
2018-01-02T11:34:43.262Z,5.04
2018-01-02T11:35:53.207Z,5.1
2018-01-02T11:37:03.150Z,5.02
2018-01-02T11:38:13.099Z,5.02
2018-01-02T11:39:23.070Z,5.08
2018-01-02T11:40:33.039Z,5.16
2018-01-02T11:41:42.997Z,5.1
2018-01-02T11:42:53.021Z,5.12
2018-01-02T11:44:02.971Z,5.12
2018-01-02T11:45:12.926Z,5.05
2018-01-02T11:46:22.608Z,5.13
2018-01-02T11:47:32.291Z,5.15
2018-01-02T11:48:41.728Z,5.1
2018-01-02T11:49:51.770Z,5.07
2018-01-02T11:51:01.476Z,5.13
2018-01-02T11:52:11.426Z,5.25
2018-01-02T11:53:21.116Z,5.22
2018-01-02T11:54:30.819Z,5.28
2018-01-02T11:55:40.788Z,5.23
2018-01-02T11:56:50.741Z,5.19
2018-01-02T11:58:00.693Z,5.2
2018-01-02T11:59:10.879Z,5.15
2018-01-02T12:00:20.845Z,5.22
2018-01-02T12:01:30.539Z,5.19
2018-01-02T12:02:39.972Z,5.15
2018-01-02T12:03:49.924Z,5.13
2018-01-02T12:04:59.393Z,5.2
2018-01-02T12:06:09.093Z,5.22
2018-01-02T12:07:19.047Z,5.2
2018-01-02T12:08:29.009Z,5.23
2018-01-02T12:09:38.955Z,5.25
2018-01-02T12:10:48.923Z,5.16
2018-01-02T12:11:58.885Z,5.23
2018-01-02T12:13:08.853Z,5.16
2018-01-02T12:14:18.798Z,5.36
2018-01-02T12:15:28.502Z,5.34
2018-01-02T12:16:38.207Z,5.31
2018-01-02T12:17:48.157Z,5.36
2018-01-02T12:18:57.583Z,5.33
2018-01-02T12:20:07.264Z,5.31
2018-01-02T12:21:16.691Z,5.4
2018-01-02T12:22:26.148Z,5.43
2018-01-02T12:23:36.164Z,5.49
2018-01-02T12:24:46.116Z,5.49
2018-01-02T12:25:56.063Z,5.36
2018-01-02T12:27:06.019Z,5.46
2018-01-02T12:28:15.965Z,5.44
2018-01-02T12:29:25.666Z,5.49
2018-01-02T12:30:34.849Z,5.55
2018-01-02T12:31:44.541Z,5.49
2018-01-02T12:32:54.493Z,5.52
2018-01-02T12:34:04.454Z,5.56
2018-01-02T12:35:14.417Z,5.56
2018-01-02T12:36:24.112Z,5.56
2018-01-02T12:37:34.075Z,5.58
2018-01-02T12:38:44.065Z,5.56
2018-01-02T12:39:54.044Z,5.58
2018-01-02T12:41:04.063Z,5.67
2018-01-02T12:42:13.777Z,5.67
2018-01-02T12:43:23.740Z,5.67
2018-01-02T12:44:33.690Z,5.64
2018-01-02T12:45:43.653Z,5.76
2018-01-02T12:46:53.612Z,5.62
2018-01-02T12:48:03.574Z,5.72
2018-01-02T12:49:13.524Z,5.65
2018-01-02T12:50:23.475Z,5.65
2018-01-02T12:51:33.159Z,5.65
2018-01-02T12:52:42.866Z,5.74
2018-01-02T12:53:52.566Z,5.73
2018-01-02T12:55:02.278Z,5.72
2018-01-02T12:56:12.028Z,5.69
2018-01-02T12:57:21.704Z,5.8
2018-01-02T12:58:31.388Z,5.77
2018-01-02T12:59:41.344Z,5.8
2018-01-02T13:00:51.299Z,5.88
2018-01-02T13:02:00.990Z,5.88
2018-01-02T13:03:10.936Z,5.76
2018-01-02T13:04:20.887Z,5.8
2018-01-02T13:05:30.844Z,5.83
2018-01-02T13:06:40.804Z,5.8
2018-01-02T13:07:50.765Z,5.87
2018-01-02T13:09:00.724Z,5.9
2018-01-02T13:10:10.421Z,5.87
2018-01-02T13:11:20.382Z,5.88
2018-01-02T13:12:30.348Z,5.91
2018-01-02T13:13:40.305Z,5.84
2018-01-02T13:14:50.253Z,5.81
2018-01-02T13:15:59.944Z,5.91
2018-01-02T13:17:09.914Z,5.87
2018-01-02T13:18:19.432Z,5.91
2018-01-02T13:19:29.412Z,5.9
2018-01-02T13:20:39.372Z,5.84
2018-01-02T13:21:49.062Z,5.88
2018-01-02T13:24:02.748Z,5.81
2018-01-02T13:25:12.443Z,5.84
2018-01-02T13:26:22.159Z,5.94
2018-01-02T13:27:31.591Z,5.95
2018-01-02T13:28:41.550Z,5.95
2018-01-02T13:29:51.238Z,6.01
2018-01-02T13:31:01.199Z,5.99
2018-01-02T13:32:11.162Z,5.97
2018-01-02T13:33:20.862Z,6.07
2018-01-02T13:34:30.806Z,6.09
2018-01-02T13:35:40.516Z,6.06
2018-01-02T13:36:50.537Z,6.01
2018-01-02T13:38:00.551Z,6.05
2018-01-02T13:39:10.516Z,6.06
2018-01-02T13:40:20.457Z,6.07
2018-01-02T13:41:30.457Z,6.13
2018-01-02T13:42:39.894Z,6.06
2018-01-02T13:43:49.841Z,6.09
2018-01-02T13:44:59.783Z,6.1
2018-01-02T13:46:09.224Z,6.1
2018-01-02T13:47:18.927Z,6.15
2018-01-02T13:48:28.881Z,6.1
2018-01-02T13:49:38.835Z,6.07
2018-01-02T13:50:48.630Z,6.09
2018-01-02T13:51:58.321Z,6.07
2018-01-02T13:53:08.008Z,6.1
2018-01-02T13:54:17.956Z,6.16
2018-01-02T13:55:27.899Z,6.06
2018-01-02T13:56:37.597Z,6.09
2018-01-02T13:57:47.579Z,6.06
2018-01-02T13:58:57.326Z,6.13
2018-01-02T14:00:07.277Z,6.09
2018-01-02T14:01:17.228Z,6.09
2018-01-02T14:02:27.179Z,6.1
2018-01-02T14:03:37.136Z,6.1
2018-01-02T14:04:47.086Z,6.09
2018-01-02T14:05:57.047Z,6.07
2018-01-02T14:07:07.013Z,6.12
2018-01-02T14:08:16.705Z,6.19
2018-01-02T14:09:26.680Z,6.2
2018-01-02T14:10:36.654Z,6.13
2018-01-02T14:11:46.645Z,6.16
2018-01-02T14:12:56.592Z,6.15
2018-01-02T14:14:06.554Z,6.16
2018-01-02T14:15:16.506Z,6.13
2018-01-02T14:16:26.449Z,6.12
2018-01-02T14:17:36.138Z,6.15
2018-01-02T14:18:46.105Z,6.13
2018-01-02T14:19:55.791Z,6.19
2018-01-02T14:21:05.743Z,6.28
2018-01-02T14:22:15.690Z,6.16
2018-01-02T14:23:25.131Z,6.19
2018-01-02T14:24:35.086Z,6.26
2018-01-02T14:25:44.794Z,6.26
2018-01-02T14:26:54.750Z,6.32
2018-01-02T14:28:04.711Z,6.32
2018-01-02T14:29:14.433Z,6.28
2018-01-02T14:30:23.868Z,6.31
2018-01-02T14:31:33.808Z,6.34
2018-01-02T14:32:43.755Z,6.25
2018-01-02T14:33:53.711Z,6.34
2018-01-02T14:35:03.398Z,6.31
2018-01-02T14:36:13.347Z,6.32
2018-01-02T14:37:23.304Z,6.22
2018-01-02T14:38:32.759Z,6.26
2018-01-02T14:39:42.212Z,6.29
2018-01-02T14:40:52.174Z,6.28
2018-01-02T14:42:02.140Z,6.28
2018-01-02T14:43:12.090Z,6.28
2018-01-02T14:44:22.044Z,6.31
2018-01-02T14:45:32.009Z,6.34
2018-01-02T14:46:41.959Z,6.22
2018-01-02T14:47:51.911Z,6.13
2018-01-02T14:49:01.866Z,6.12
2018-01-02T14:50:11.570Z,6.2
2018-01-02T14:51:21.515Z,6.07
2018-01-02T14:52:31.492Z,6.12
2018-01-02T14:53:41.466Z,5.99
2018-01-02T14:54:51.420Z,5.95
2018-01-02T14:56:01.376Z,5.92
2018-01-02T14:57:11.330Z,5.79
2018-01-02T14:58:21.292Z,5.77
2018-01-02T14:59:30.980Z,5.7
2018-01-02T15:00:40.665Z,5.67
2018-01-02T15:01:50.626Z,5.58
2018-01-02T15:03:00.574Z,5.58
2018-01-02T15:04:10.536Z,5.58
2018-01-02T15:05:20.518Z,5.58
2018-01-02T15:06:30.306Z,5.56
2018-01-02T15:07:40.260Z,5.56
2018-01-02T15:08:49.953Z,5.64
2018-01-02T15:09:59.900Z,5.58
2018-01-02T15:11:09.869Z,5.54
2018-01-02T15:12:19.576Z,5.56
2018-01-02T15:13:29.012Z,5.62
2018-01-02T15:14:38.708Z,5.58
2018-01-02T15:15:48.405Z,5.58
2018-01-02T15:16:58.102Z,5.59
2018-01-02T15:18:08.043Z,5.59
2018-01-02T15:19:17.990Z,5.56
2018-01-02T15:20:27.994Z,5.52
2018-01-02T15:21:37.960Z,5.49
2018-01-02T15:22:47.143Z,5.52
2018-01-02T15:23:56.875Z,5.55
2018-01-02T15:25:06.581Z,5.51
2018-01-02T15:26:16.534Z,5.43
2018-01-02T15:27:26.489Z,5.55
2018-01-02T15:28:36.427Z,5.55
2018-01-02T15:29:46.378Z,5.54
2018-01-02T15:30:56.077Z,5.58
2018-01-02T15:32:05.515Z,5.56
2018-01-02T15:33:15.471Z,5.54
2018-01-02T15:34:25.417Z,5.61